Time;durP1;ratioP1;P1;durP2;ratioP2;P2;SDS_P1;SDS_P2;PMS_P1;PMS_P2;Temp;Humidity;BMP_temperature;BMP_pressure;BME280_temperature;BME280_humidity;BME280_pressure;Samples;Min_cycle;Max_cycle;Signal;HPM_P1;HPM_P2
2022/07/08 00:02:19;;;;;;;3.90;1.60;;;;;;;;;;5054254;28;20100;-60
2022/07/08 00:05:32;;;;;;;3.25;1.67;;;;;;;;;;5054057;28;20028;-61
2022/07/08 00:08:04;;;;;;;4.95;1.90;;;;;;;;;;5054241;28;20509;-59
2022/07/08 00:10:56;;;;;;;4.68;1.90;;;;;;;;;;5053252;28;20037;-59
2022/07/08 00:13:58;;;;;;;11.02;1.75;;;;;;;;;;5053525;28;20037;-59
2022/07/08 00:16:34;;;;;;;7.40;1.65;;;;;;;;;;5015505;28;20049;-59
2022/07/08 00:22:29;;;;;;;;;;;;;;;;;;;;;
2022/07/08 00:24:56;;;;;;;6.32;1.92;;;;;;;;;;5012394;28;20484;-59
2022/07/08 00:27:28;;;;;;;4.22;1.83;;;;;;;;;;5013041;28;20472;-59
2022/07/08 00:30:17;;;;;;;;;;;;;;;;;;;;;
2022/07/08 00:32:59;;;;;;;6.03;1.90;;;;;;;;;;5013208;28;20034;-59
2022/07/08 00:35:37;;;;;;;;;;;;;;;;;;;;;
2022/07/08 00:38:09;;;;;;;6.22;1.63;;;;;;;;;;5013500;28;20022;-59
2022/07/08 00:43:54;;;;;;;3.90;2.10;;;;;;;;;;5013390;28;20030;-59
2022/07/08 00:46:51;;;;;;;4.57;2.13;;;;;;;;;;5013424;28;20483;-59
2022/07/08 00:49:32;;;;;;;5.88;1.85;;;;;;;;;;5013476;28;20029;-59
2022/07/08 00:52:22;;;;;;;;;;;;;;;;;;;;;
2022/07/08 00:55:00;;;;;;;7.22;2.05;;;;;;;;;;5012499;28;20078;-59
2022/07/08 01:03:43;;;;;;;2.92;2.13;;;;;;;;;;5014211;28;20096;-59
2022/07/08 01:06:27;;;;;;;3.05;1.98;;;;;;;;;;5013937;28;20033;-59
2022/07/08 01:09:14;;;;;;;5.20;2.63;;;;;;;;;;5013961;28;20030;-59
2022/07/08 01:12:18;;;;;;;4.53;2.53;;;;;;;;;;5012396;28;20033;-59
2022/07/08 01:15:20;;;;;;;9.93;3.35;;;;;;;;;;5022514;28;20021;-59
2022/07/08 01:18:12;;;;;;;7.35;2.78;;;;;;;;;;5043936;28;20036;-59
2022/07/08 01:24:07;;;;;;;3.67;2.60;;;;;;;;;;5049793;28;20065;-59
2022/07/08 01:26:55;;;;;;;8.50;2.95;;;;;;;;;;5043225;28;20048;-59
2022/07/08 01:29:28;;;;;;;5.35;3.10;;;;;;;;;;5053403;28;20100;-59
2022/07/08 01:32:03;;;;;;;5.22;3.25;;;;;;;;;;5051841;28;20037;-59
2022/07/08 01:38:07;;;;;;;7.05;2.92;;;;;;;;;;5056150;28;20036;-59
2022/07/08 01:40:52;;;;;;;6.75;3.03;;;;;;;;;;5089323;28;20041;-59
2022/07/08 01:43:22;;;;;;;5.20;3.22;;;;;;;;;;5057939;28;20040;-59
2022/07/08 01:46:13;;;;;;;;;;;;;;;;;;;;;
2022/07/08 01:49:21;;;;;;;6.22;2.65;;;;;;;;;;5057587;28;20219;-58
2022/07/08 01:52:00;;;;;;;7.82;2.47;;;;;;;;;;5057035;28;20029;-58
2022/07/08 01:54:38;;;;;;;3.80;2.13;;;;;;;;;;5057468;28;20432;-58
2022/07/08 01:57:51;;;;;;;;;;;;;;;;;;;;;
2022/07/08 02:00:24;;;;;;;6.10;2.63;;;;;;;;;;5051839;28;20033;-59
2022/07/08 02:02:54;;;;;;;4.35;2.35;;;;;;;;;;5057888;28;20116;-58
2022/07/08 02:05:44;;;;;;;5.22;2.40;;;;;;;;;;5058055;28;20514;-59
2022/07/08 02:08:20;;;;;;;5.63;2.55;;;;;;;;;;5053902;28;20116;-58
2022/07/08 02:16:50;;;;;;;4.88;2.63;;;;;;;;;;5035902;28;20569;-59
2022/07/08 02:19:36;;;;;;;3.72;2.53;;;;;;;;;;5036287;28;20030;-59
2022/07/08 02:22:11;;;;;;;3.67;2.15;;;;;;;;;;5035472;28;20018;-58
2022/07/08 02:24:43;;;;;;;7.45;2.60;;;;;;;;;;5036603;28;20471;-59
2022/07/08 02:27:17;;;;;;;8.85;3.20;;;;;;;;;;5038977;28;20022;-59
2022/07/08 02:29:50;;;;;;;6.47;2.90;;;;;;;;;;5038636;28;20033;-59
2022/07/08 02:32:44;;;;;;;3.70;2.17;;;;;;;;;;5036432;28;20029;-58
2022/07/08 02:35:25;;;;;;;6.50;2.47;;;;;;;;;;5038381;28;20152;-59
2022/07/08 02:38:16;;;;;;;5.70;2.53;;;;;;;;;;5034619;28;20047;-59
2022/07/08 02:40:51;;;;;;;5.70;1.92;;;;;;;;;;5037320;28;20022;-58
2022/07/08 02:43:32;;;;;;;4.82;2.22;;;;;;;;;;5037602;28;20029;-60
2022/07/08 02:46:14;;;;;;;5.13;2.15;;;;;;;;;;5038409;28;20029;-60
2022/07/08 02:49:07;;;;;;;8.82;2.35;;;;;;;;;;5036951;28;20044;-61
2022/07/08 02:51:36;;;;;;;7.40;2.22;;;;;;;;;;5037214;28;20040;-60
2022/07/08 02:54:12;;;;;;;5.50;2.65;;;;;;;;;;5037707;28;20037;-60
2022/07/08 02:57:09;;;;;;;9.30;2.92;;;;;;;;;;5038609;28;20045;-61
2022/07/08 02:59:54;;;;;;;4.20;1.85;;;;;;;;;;5038384;28;20049;-60
2022/07/08 03:02:34;;;;;;;8.63;2.45;;;;;;;;;;5036956;28;20531;-61
2022/07/08 03:08:34;;;;;;;6.35;2.05;;;;;;;;;;4991952;28;20531;-61
2022/07/08 03:11:21;;;;;;;6.10;2.97;;;;;;;;;;5010501;28;20107;-61
2022/07/08 03:13:47;;;;;;;4.82;2.20;;;;;;;;;;5036747;28;20045;-60
2022/07/08 03:16:14;;;;;;;6.47;2.80;;;;;;;;;;5053292;28;20025;-61
2022/07/08 03:18:56;;;;;;;9.57;2.20;;;;;;;;;;5056311;28;20029;-61
2022/07/08 03:21:32;;;;;;;8.18;2.10;;;;;;;;;;5054331;28;20068;-61
2022/07/08 03:23:58;;;;;;;4.53;1.90;;;;;;;;;;5055527;28;20097;-60
2022/07/08 03:26:45;;;;;;;6.30;1.85;;;;;;;;;;5056564;28;20060;-61
2022/07/08 03:29:35;;;;;;;12.77;3.05;;;;;;;;;;5054458;28;20483;-60
2022/07/08 03:32:25;;;;;;;3.92;2.25;;;;;;;;;;5047528;28;20025;-60
2022/07/08 03:35:06;;;;;;;4.23;2.10;;;;;;;;;;5052138;28;20462;-60
2022/07/08 03:37:56;;;;;;;6.07;2.40;;;;;;;;;;5053408;28;20401;-60
2022/07/08 03:43:55;;;;;;;;;;;;;;;;;;5039488;28;20332;-61
2022/07/08 03:46:42;;;;;;;;;;;;;;;;;;;;;
2022/07/08 03:49:27;;;;;;;5.68;2.55;;;;;;;;;;5013009;28;20034;-60
2022/07/08 03:52:11;;;;;;;3.88;2.50;;;;;;;;;;5011103;28;20025;-59
2022/07/08 03:55:00;;;;;;;7.05;2.55;;;;;;;;;;5031267;28;20033;-58
2022/07/08 03:57:35;;;;;;;5.38;2.05;;;;;;;;;;5012466;28;20637;-59
2022/07/08 04:00:05;;;;;;;6.65;2.42;;;;;;;;;;5031715;28;20363;-59
2022/07/08 04:03:06;;;;;;;9.03;3.00;;;;;;;;;;5032825;28;20021;-58
2022/07/08 04:05:45;;;;;;;;;;;;;;;;;;5030758;28;20276;-59
2022/07/08 04:11:33;;;;;;;5.95;2.60;;;;;;;;;;5023329;28;20021;-59
2022/07/08 04:14:19;;;;;;;8.20;2.72;;;;;;;;;;5031513;28;20032;-59
2022/07/08 04:17:05;;;;;;;7.47;2.58;;;;;;;;;;5013235;28;20080;-59
2022/07/08 04:22:39;;;;;;;3.42;2.33;;;;;;;;;;5027447;28;20033;-59
2022/07/08 04:28:21;;;;;;;3.10;2.03;;;;;;;;;;5028622;28;20025;-58
2022/07/08 04:31:03;;;;;;;;;;;;;;;;;;;;;
2022/07/08 04:39:58;;;;;;;3.88;2.28;;;;;;;;;;5014303;28;20135;-58
2022/07/08 04:42:30;;;;;;;5.85;3.05;;;;;;;;;;5029422;28;20033;-58
2022/07/08 04:45:12;;;;;;;3.90;2.55;;;;;;;;;;5028927;28;20029;-59
2022/07/08 04:47:41;;;;;;;7.10;2.75;;;;;;;;;;5022078;28;20032;-59
2022/07/08 04:50:40;;;;;;;7.55;2.78;;;;;;;;;;5030243;28;20075;-59
2022/07/08 04:53:27;;;;;;;5.50;1.95;;;;;;;;;;5030053;28;20183;-59
2022/07/08 04:58:44;;;;;;;5.15;2.97;;;;;;;;;;5027561;28;20046;-58
2022/07/08 05:07:31;;;;;;;3.27;1.67;;;;;;;;;;5017458;28;20386;-59
2022/07/08 05:10:13;;;;;;;3.75;1.85;;;;;;;;;;5029851;28;20283;-58
2022/07/08 05:12:42;;;;;;;3.65;2.13;;;;;;;;;;5030670;28;20368;-59
2022/07/08 05:18:54;;;;;;;3.67;2.28;;;;;;;;;;5027928;28;20385;-61
2022/07/08 05:21:42;;;;;;;4.35;1.92;;;;;;;;;;5029902;28;20091;-61
2022/07/08 05:24:30;;;;;;;5.95;2.45;;;;;;;;;;5035583;28;20041;-61
2022/07/08 05:27:06;;;;;;;4.88;1.95;;;;;;;;;;5026048;28;20060;-59
2022/07/08 05:29:49;;;;;;;8.70;2.17;;;;;;;;;;5024952;28;20038;-59
2022/07/08 05:32:49;;;;;;;;;;;;;;;;;;;;;
2022/07/08 05:35:27;;;;;;;6.00;2.15;;;;;;;;;;5027330;28;20036;-59
2022/07/08 05:44:07;;;;;;;2.22;1.33;;;;;;;;;;5025898;28;20681;-59
2022/07/08 05:46:39;;;;;;;8.95;2.78;;;;;;;;;;5029372;28;20022;-59
2022/07/08 05:49:21;;;;;;;6.68;2.08;;;;;;;;;;5029668;28;20072;-59
2022/07/08 05:51:58;;;;;;;3.00;1.60;;;;;;;;;;5031883;28;20701;-59
2022/07/08 05:54:30;;;;;;;6.35;1.75;;;;;;;;;;5029651;28;20033;-59
2022/07/08 05:57:00;;;;;;;6.20;2.28;;;;;;;;;;5039280;28;20046;-59
2022/07/08 05:59:52;;;;;;;7.53;2.08;;;;;;;;;;5031466;28;20139;-59
2022/07/08 06:02:26;;;;;;;2.80;1.55;;;;;;;;;;5026159;28;20048;-59
2022/07/08 06:05:22;;;;;;;6.78;2.03;;;;;;;;;;5059806;28;20099;-59
2022/07/08 06:07:56;;;;;;;5.65;2.08;;;;;;;;;;5027325;28;20041;-59
2022/07/08 06:10:30;;;;;;;5.60;1.55;;;;;;;;;;5027299;28;20542;-59
2022/07/08 06:13:01;;;;;;;3.75;2.33;;;;;;;;;;5032088;28;20129;-59
2022/07/08 06:15:37;;;;;;;4.63;1.55;;;;;;;;;;5039018;28;20042;-59
2022/07/08 06:18:07;;;;;;;4.70;1.25;;;;;;;;;;5029068;28;20057;-59
2022/07/08 06:26:27;;;;;;;4.57;1.83;;;;;;;;;;5020755;28;20052;-59
2022/07/08 06:29:03;;;;;;;;;;;;;;;;;;;;;
2022/07/08 06:32:02;;;;;;;;;;;;;;;;;;;;;
2022/07/08 06:34:57;;;;;;;4.22;1.77;;;;;;;;;;5022928;28;20064;-59
2022/07/08 06:37:38;;;;;;;3.58;1.50;;;;;;;;;;5023741;28;20026;-59
2022/07/08 06:40:25;;;;;;;6.43;1.85;;;;;;;;;;5028027;28;20045;-59
2022/07/08 06:43:22;;;;;;;3.90;1.05;;;;;;;;;;5028004;28;20331;-60
2022/07/08 06:45:55;;;;;;;6.50;2.30;;;;;;;;;;5020716;28;20445;-61
2022/07/08 06:48:27;;;;;;;6.28;1.67;;;;;;;;;;5024501;28;20072;-57
2022/07/08 06:51:20;;;;;;;;;;;;;;;;;;;;;
2022/07/08 06:57:10;;;;;;;3.40;2.03;;;;;;;;;;5032046;28;20506;-58
2022/07/08 07:02:51;;;;;;;4.82;1.77;;;;;;;;;;5008080;28;20030;-58
2022/07/08 07:05:31;;;;;;;;;;;;;;;;;;;;;
2022/07/08 07:08:10;;;;;;;4.30;1.58;;;;;;;;;;5026865;28;20014;-58
2022/07/08 07:13:28;;;;;;;5.47;1.63;;;;;;;;;;4994777;28;20038;-59
2022/07/08 07:22:11;;;;;;;3.17;1.30;;;;;;;;;;5002081;28;20033;-59
2022/07/08 07:31:11;;;;;;;;;;;;;;;;;;;;;
2022/07/08 07:33:47;;;;;;;5.70;1.60;;;;;;;;;;5029297;28;20428;-58
2022/07/08 07:36:22;;;;;;;3.00;1.05;;;;;;;;;;5026459;28;20034;-60
2022/07/08 07:39:07;;;;;;;3.92;1.42;;;;;;;;;;5029726;28;20080;-58
2022/07/08 07:41:52;;;;;;;2.55;1.23;;;;;;;;;;5029975;28;20030;-58
2022/07/08 07:44:31;;;;;;;5.75;1.30;;;;;;;;;;5032683;28;20035;-58
2022/07/08 07:47:10;;;;;;;4.53;1.33;;;;;;;;;;5027209;28;20038;-58
2022/07/08 07:49:37;;;;;;;3.20;1.50;;;;;;;;;;5022698;28;20033;-58
2022/07/08 07:52:40;;;;;;;5.43;1.60;;;;;;;;;;5027572;28;20040;-58
2022/07/08 07:55:43;;;;;;;5.78;1.65;;;;;;;;;;5028917;28;20438;-59
2022/07/08 07:58:35;;;;;;;5.57;1.40;;;;;;;;;;5029147;28;20048;-58
2022/07/08 08:01:20;;;;;;;4.85;1.15;;;;;;;;;;5021380;28;20687;-58
2022/07/08 08:04:42;;;;;;;;;;;;;;;;;;;;;
2022/07/08 08:10:01;;;;;;;2.35;1.10;;;;;;;;;;5025144;28;20448;-59
2022/07/08 08:12:28;;;;;;;9.63;1.25;;;;;;;;;;5028408;28;20561;-59
2022/07/08 08:15:18;;;;;;;3.50;1.42;;;;;;;;;;5030074;28;20471;-59
2022/07/08 08:17:56;;;;;;;4.63;1.65;;;;;;;;;;5024402;28;20029;-59
2022/07/08 08:20:28;;;;;;;3.25;1.48;;;;;;;;;;5021723;28;20467;-60
2022/07/08 08:22:54;;;;;;;3.38;1.63;;;;;;;;;;5022432;28;20036;-59
2022/07/08 08:25:21;;;;;;;4.53;1.23;;;;;;;;;;5009515;28;20567;-59
2022/07/08 08:28:12;;;;;;;4.15;1.27;;;;;;;;;;5021478;28;20136;-59
2022/07/08 08:30:45;;;;;;;5.90;1.90;;;;;;;;;;5019799;28;20034;-59
2022/07/08 08:33:37;;;;;;;2.95;1.55;;;;;;;;;;5026535;28;20364;-59
2022/07/08 08:39:17;;;;;;;7.57;1.98;;;;;;;;;;5019110;28;20025;-59
2022/07/08 08:41:55;;;;;;;3.10;1.17;;;;;;;;;;5027911;28;20031;-59
2022/07/08 08:44:29;;;;;;;3.97;1.13;;;;;;;;;;5012956;28;20030;-59
2022/07/08 08:46:57;;;;;;;4.88;1.50;;;;;;;;;;5025314;28;20546;-60
2022/07/08 08:49:29;;;;;;;3.17;1.27;;;;;;;;;;5028903;28;20032;-59
2022/07/08 08:51:59;;;;;;;5.50;1.70;;;;;;;;;;5025583;28;20032;-59
2022/07/08 08:54:50;;;;;;;2.92;1.75;;;;;;;;;;5026857;28;20496;-59
2022/07/08 08:57:26;;;;;;;1.40;0.82;;;;;;;;;;5024346;28;20090;-60
2022/07/08 09:00:22;;;;;;;3.22;0.95;;;;;;;;;;5023617;28;20062;-60
2022/07/08 09:03:23;;;;;;;5.03;1.90;;;;;;;;;;5023045;28;20052;-59
2022/07/08 09:08:50;;;;;;;3.70;1.23;;;;;;;;;;5028223;28;20037;-59
2022/07/08 09:11:56;;;;;;;4.60;1.38;;;;;;;;;;5026267;28;20422;-60
2022/07/08 09:14:24;;;;;;;4.70;1.65;;;;;;;;;;5027776;28;20037;-59
2022/07/08 09:17:21;;;;;;;2.28;0.95;;;;;;;;;;5024552;28;20391;-59
2022/07/08 09:20:07;;;;;;;3.45;1.15;;;;;;;;;;5021512;28;20041;-60
2022/07/08 09:22:42;;;;;;;3.00;1.13;;;;;;;;;;5022425;28;21652;-60
2022/07/08 09:28:43;;;;;;;1.65;0.95;;;;;;;;;;5026092;28;20026;-60
2022/07/08 09:31:32;;;;;;;3.33;1.00;;;;;;;;;;5012607;28;20102;-60
2022/07/08 09:34:10;;;;;;;2.33;1.42;;;;;;;;;;5021958;28;20026;-59
2022/07/08 09:37:09;;;;;;;6.82;1.38;;;;;;;;;;5009393;28;20047;-59
2022/07/08 09:39:45;;;;;;;3.47;1.33;;;;;;;;;;5027536;28;20040;-59
2022/07/08 09:42:21;;;;;;;2.75;1.42;;;;;;;;;;5022517;28;20040;-59
2022/07/08 09:48:31;;;;;;;2.30;1.17;;;;;;;;;;4962686;28;20560;-59
2022/07/08 09:51:08;;;;;;;3.65;1.30;;;;;;;;;;4956714;28;20418;-59
2022/07/08 09:53:51;;;;;;;;;;;;;;;;;;;;;
2022/07/08 09:56:28;;;;;;;3.22;1.27;;;;;;;;;;5019411;28;20052;-59
2022/07/08 09:58:57;;;;;;;9.95;1.65;;;;;;;;;;5019015;28;20153;-59
2022/07/08 10:01:33;;;;;;;4.38;1.50;;;;;;;;;;5025561;28;20022;-59
2022/07/08 10:04:06;;;;;;;1.65;1.13;;;;;;;;;;5020291;28;20047;-59
2022/07/08 10:07:00;;;;;;;4.20;1.55;;;;;;;;;;5023774;28;20017;-59
2022/07/08 10:09:35;;;;;;;2.53;1.10;;;;;;;;;;5022608;28;20462;-59
2022/07/08 10:12:02;;;;;;;2.58;1.17;;;;;;;;;;5030155;28;20087;-59
2022/07/08 10:14:43;;;;;;;2.67;1.17;;;;;;;;;;5016861;28;20038;-59
2022/07/08 10:17:28;;;;;;;;;;;;;;;;;;;;;
2022/07/08 10:23:10;;;;;;;4.13;1.10;;;;;;;;;;4999959;28;20021;-59
2022/07/08 10:29:10;;;;;;;5.20;1.67;;;;;;;;;;5018928;28;20057;-59
2022/07/08 10:34:57;;;;;;;2.38;1.10;;;;;;;;;;5017715;28;20356;-59
2022/07/08 10:37:56;;;;;;;2.88;1.27;;;;;;;;;;5013813;28;20472;-59
2022/07/08 10:40:41;;;;;;;2.10;0.90;;;;;;;;;;5031577;28;20075;-59
2022/07/08 10:43:44;;;;;;;3.28;1.27;;;;;;;;;;5019924;28;20064;-59
2022/07/08 10:46:25;;;;;;;2.42;0.90;;;;;;;;;;5021362;28;20025;-59
2022/07/08 10:48:55;;;;;;;4.60;1.40;;;;;;;;;;5024829;28;20037;-59
2022/07/08 10:51:25;;;;;;;3.85;1.42;;;;;;;;;;5009648;28;20502;-60
2022/07/08 10:53:53;;;;;;;4.65;1.30;;;;;;;;;;5022679;28;20025;-60
2022/07/08 10:56:44;;;;;;;3.50;0.98;;;;;;;;;;5021689;28;20041;-59
2022/07/08 10:59:38;;;;;;;4.07;1.58;;;;;;;;;;5019559;28;20053;-59
2022/07/08 11:02:28;;;;;;;4.53;1.73;;;;;;;;;;5015941;28;20034;-60
2022/07/08 11:04:57;;;;;;;3.53;1.15;;;;;;;;;;5019542;28;20033;-59
2022/07/08 11:07:28;;;;;;;5.27;1.30;;;;;;;;;;5018813;28;20045;-59
2022/07/08 11:10:11;;;;;;;3.13;1.20;;;;;;;;;;5017375;28;20079;-60
2022/07/08 11:13:22;;;;;;;2.88;1.40;;;;;;;;;;5060801;28;20044;-59
2022/07/08 11:19:09;;;;;;;3.95;1.65;;;;;;;;;;5025680;28;19920;-60
2022/07/08 11:21:40;;;;;;;4.05;1.35;;;;;;;;;;5026359;28;20119;-60
2022/07/08 11:24:26;;;;;;;3.17;0.98;;;;;;;;;;5021562;28;20110;-58
2022/07/08 11:27:01;;;;;;;3.05;1.10;;;;;;;;;;5024741;28;20028;-58
2022/07/08 11:29:36;;;;;;;2.08;1.08;;;;;;;;;;5024567;28;20044;-59
2022/07/08 11:32:03;;;;;;;3.10;1.23;;;;;;;;;;5035859;28;20119;-60
2022/07/08 11:37:32;;;;;;;4.55;1.33;;;;;;;;;;5028105;28;20055;-60
2022/07/08 11:40:17;;;;;;;;;;;;;;;;;;;;;
2022/07/08 11:46:23;;;;;;;2.50;0.77;;;;;;;;;;5022949;28;20499;-59
2022/07/08 11:48:58;;;;;;;3.83;1.67;;;;;;;;;;5014781;28;20021;-58
2022/07/08 11:51:30;;;;;;;2.53;0.93;;;;;;;;;;5014109;28;20018;-58
2022/07/08 11:54:26;;;;;;;4.28;1.38;;;;;;;;;;5023753;28;20497;-59
2022/07/08 11:57:11;;;;;;;2.08;0.73;;;;;;;;;;5019725;28;20555;-58
2022/07/08 11:59:45;;;;;;;3.58;0.93;;;;;;;;;;5023576;28;20038;-59
2022/07/08 12:02:11;;;;;;;1.83;0.75;;;;;;;;;;5022532;28;20044;-58
2022/07/08 12:04:54;;;;;;;2.78;1.15;;;;;;;;;;5026842;28;20037;-58
2022/07/08 12:07:34;;;;;;;3.50;1.45;;;;;;;;;;5023546;28;20033;-59
2022/07/08 12:10:32;;;;;;;2.65;1.05;;;;;;;;;;5020810;28;20426;-58
2022/07/08 12:13:14;;;;;;;4.18;1.83;;;;;;;;;;5056520;28;20268;-58
2022/07/08 12:15:46;;;;;;;5.53;0.80;;;;;;;;;;5025031;28;20121;-59
2022/07/08 12:18:46;;;;;;;;;;;;;;;;;;;;;
2022/07/08 12:21:37;;;;;;;3.47;0.83;;;;;;;;;;5019176;28;20029;-59
2022/07/08 12:27:30;;;;;;;2.65;0.85;;;;;;;;;;5023858;28;20028;-58
2022/07/08 12:30:01;;;;;;;2.35;0.85;;;;;;;;;;5024240;28;20471;-59
2022/07/08 12:32:59;;;;;;;2.00;0.80;;;;;;;;;;5022448;28;20517;-58
2022/07/08 12:35:29;;;;;;;2.13;0.77;;;;;;;;;;5026528;28;20379;-59
2022/07/08 12:38:11;;;;;;;2.00;0.88;;;;;;;;;;5020993;28;20037;-58
2022/07/08 12:40:39;;;;;;;3.90;1.42;;;;;;;;;;5019739;28;20352;-58
2022/07/08 12:43:08;;;;;;;2.45;1.20;;;;;;;;;;5031623;28;20056;-59
2022/07/08 12:45:54;;;;;;;1.75;0.75;;;;;;;;;;5029060;28;20041;-59
2022/07/08 12:48:26;;;;;;;3.00;1.13;;;;;;;;;;5026705;28;20441;-58
2022/07/08 12:50:59;;;;;;;2.75;0.90;;;;;;;;;;5015778;28;20116;-58
2022/07/08 12:53:37;;;;;;;2.20;1.17;;;;;;;;;;5020332;28;20019;-58
2022/07/08 12:56:30;;;;;;;2.53;0.93;;;;;;;;;;5023559;28;20223;-59
2022/07/08 12:59:02;;;;;;;3.13;1.27;;;;;;;;;;5016849;28;20484;-59
2022/07/08 13:01:43;;;;;;;3.33;0.82;;;;;;;;;;5021240;28;20213;-59
2022/07/08 13:04:17;;;;;;;2.80;1.08;;;;;;;;;;5017603;28;20045;-58
2022/07/08 13:06:50;;;;;;;2.40;0.93;;;;;;;;;;5022077;28;20369;-59
2022/07/08 13:09:26;;;;;;;5.72;1.05;;;;;;;;;;5021382;28;20045;-59
2022/07/08 13:12:08;;;;;;;2.38;1.13;;;;;;;;;;5023325;28;20022;-59
2022/07/08 13:14:55;;;;;;;3.13;1.10;;;;;;;;;;5032466;28;20698;-60
2022/07/08 13:17:28;;;;;;;2.13;0.82;;;;;;;;;;5051669;28;20475;-60
2022/07/08 13:20:03;;;;;;;2.22;1.00;;;;;;;;;;5027393;28;20029;-59
2022/07/08 13:22:36;;;;;;;3.92;1.25;;;;;;;;;;5029573;28;20025;-59
2022/07/08 13:25:20;;;;;;;4.05;1.00;;;;;;;;;;5029608;28;20041;-60
2022/07/08 13:28:04;;;;;;;3.63;1.00;;;;;;;;;;5030743;28;20034;-59
2022/07/08 13:31:05;;;;;;;3.22;0.90;;;;;;;;;;5025493;28;20379;-60
2022/07/08 13:33:53;;;;;;;;;;;;;;;;;;;;;
2022/07/08 13:36:30;;;;;;;2.63;1.20;;;;;;;;;;5033991;28;20037;-60
2022/07/08 13:42:56;;;;;;;;;;;;;;;;;;;;;
2022/07/08 13:45:25;;;;;;;1.10;0.45;;;;;;;;;;5020633;28;20044;-60
2022/07/08 13:48:06;;;;;;;3.05;1.15;;;;;;;;;;5029185;28;20037;-60
2022/07/08 13:50:39;;;;;;;3.90;1.02;;;;;;;;;;5025209;28;20117;-60
2022/07/08 13:53:11;;;;;;;4.72;1.10;;;;;;;;;;5033108;28;20435;-59
2022/07/08 13:55:49;;;;;;;4.55;1.00;;;;;;;;;;5026327;28;20052;-60
2022/07/08 14:01:16;;;;;;;2.30;1.15;;;;;;;;;;5024874;28;20038;-60
2022/07/08 14:03:45;;;;;;;2.75;1.25;;;;;;;;;;5026754;28;20037;-60
2022/07/08 14:06:40;;;;;;;2.58;1.45;;;;;;;;;;5020137;28;20029;-60
2022/07/08 14:09:14;;;;;;;1.08;0.52;;;;;;;;;;5012720;28;20048;-59
2022/07/08 14:12:09;;;;;;;1.58;0.73;;;;;;;;;;5018504;28;20029;-60
2022/07/08 14:17:29;;;;;;;1.92;1.05;;;;;;;;;;5018659;28;20476;-60
2022/07/08 14:20:04;;;;;;;3.25;1.20;;;;;;;;;;5053145;28;20107;-60
2022/07/08 14:22:33;;;;;;;4.53;1.38;;;;;;;;;;5026110;28;20168;-60
2022/07/08 14:25:10;;;;;;;1.55;0.70;;;;;;;;;;5021328;28;20583;-60
2022/07/08 14:27:40;;;;;;;3.08;1.30;;;;;;;;;;5024091;28;20317;-60
2022/07/08 14:30:09;;;;;;;1.45;0.88;;;;;;;;;;5025641;28;20029;-60
2022/07/08 14:32:57;;;;;;;2.58;2.00;;;;;;;;;;5028975;28;20022;-60
2022/07/08 14:35:41;;;;;;;;;;;;;;;;;;;;;
2022/07/08 14:38:17;;;;;;;4.10;1.40;;;;;;;;;;5025347;28;20041;-60
2022/07/08 14:40:45;;;;;;;2.47;1.15;;;;;;;;;;5027632;28;20554;-60
2022/07/08 14:43:13;;;;;;;3.45;1.30;;;;;;;;;;5024641;28;20478;-60
2022/07/08 14:45:46;;;;;;;3.22;1.15;;;;;;;;;;5017947;28;20064;-60
2022/07/08 14:48:32;;;;;;;2.72;1.08;;;;;;;;;;5029585;28;20365;-59
2022/07/08 14:51:04;;;;;;;2.55;0.82;;;;;;;;;;5029128;28;20033;-58
2022/07/08 14:53:37;;;;;;;4.82;0.70;;;;;;;;;;5054112;28;20423;-58
2022/07/08 14:56:11;;;;;;;3.08;1.25;;;;;;;;;;5032853;28;20034;-60
2022/07/08 14:58:44;;;;;;;7.65;1.45;;;;;;;;;;5031706;28;20365;-61
2022/07/08 15:01:18;;;;;;;5.97;1.35;;;;;;;;;;5027085;28;20460;-60
2022/07/08 15:03:47;;;;;;;4.85;1.08;;;;;;;;;;5032083;28;20030;-60
2022/07/08 15:06:16;;;;;;;1.65;1.13;;;;;;;;;;5032522;28;20037;-58
2022/07/08 15:08:47;;;;;;;1.67;0.90;;;;;;;;;;5033839;28;20029;-58
2022/07/08 15:11:20;;;;;;;3.10;0.98;;;;;;;;;;5031398;28;20061;-60
2022/07/08 15:14:49;;;;;;;1.98;0.90;;;;;;;;;;5027899;28;20033;-60
2022/07/08 15:16:50;;;;;;;2.05;1.15;;;;;;;;;;5020950;28;20399;-60
2022/07/08 15:19:19;;;;;;;3.47;0.90;;;;;;;;;;5031802;28;20096;-60
2022/07/08 15:21:51;;;;;;;1.88;1.05;;;;;;;;;;5032725;28;20029;-60
2022/07/08 15:24:40;;;;;;;1.73;0.60;;;;;;;;;;5031906;28;20439;-60
2022/07/08 15:27:13;;;;;;;2.97;0.95;;;;;;;;;;5032134;28;20059;-60
2022/07/08 15:32:57;;;;;;;2.22;1.15;;;;;;;;;;5033020;28;20033;-60
2022/07/08 15:35:35;;;;;;;2.30;0.82;;;;;;;;;;5033634;28;20151;-60
2022/07/08 15:38:01;;;;;;;7.05;1.25;;;;;;;;;;5032995;28;20387;-60
2022/07/08 15:40:39;;;;;;;3.10;1.23;;;;;;;;;;5031103;28;20044;-59
2022/07/08 15:43:08;;;;;;;3.67;1.42;;;;;;;;;;5029685;28;20029;-60
2022/07/08 15:45:52;;;;;;;1.93;1.03;;;;;;;;;;5033339;28;20030;-60
2022/07/08 15:48:21;;;;;;;3.17;0.88;;;;;;;;;;5032799;28;20032;-59
2022/07/08 15:51:00;;;;;;;4.15;1.60;;;;;;;;;;5031004;28;20498;-60
2022/07/08 15:53:34;;;;;;;4.20;2.20;;;;;;;;;;5027023;28;20037;-60
2022/07/08 15:56:01;;;;;;;2.33;1.30;;;;;;;;;;5024950;28;20037;-59
2022/07/08 15:58:41;;;;;;;5.95;2.45;;;;;;;;;;5033128;28;20021;-60
2022/07/08 16:01:11;;;;;;;5.03;1.27;;;;;;;;;;5031751;28;20022;-59
2022/07/08 16:04:09;;;;;;;3.08;1.00;;;;;;;;;;5031398;28;20037;-59
2022/07/08 16:06:45;;;;;;;2.92;0.90;;;;;;;;;;5026579;28;20033;-59
2022/07/08 16:09:14;;;;;;;3.97;1.45;;;;;;;;;;5030738;28;20100;-59
2022/07/08 16:11:42;;;;;;;3.15;1.50;;;;;;;;;;5029765;28;20390;-59
2022/07/08 16:14:31;;;;;;;;;;;;;;;;;;;;;
2022/07/08 16:17:19;;;;;;;;;;;;;;;;;;;;;
2022/07/08 16:19:54;;;;;;;2.58;1.05;;;;;;;;;;5026263;28;20040;-60
2022/07/08 16:25:12;;;;;;;2.72;1.40;;;;;;;;;;5020672;28;20044;-60
2022/07/08 16:28:15;;;;;;;2.70;1.08;;;;;;;;;;5028544;28;20247;-60
2022/07/08 16:30:46;;;;;;;2.30;1.20;;;;;;;;;;5026894;28;20021;-60
2022/07/08 16:33:31;;;;;;;2.13;0.82;;;;;;;;;;5022487;28;20037;-60
2022/07/08 16:36:09;;;;;;;4.97;2.50;;;;;;;;;;5027692;28;20041;-59
2022/07/08 16:38:36;;;;;;;7.15;1.88;;;;;;;;;;5025605;28;20084;-60
2022/07/08 16:41:23;;;;;;;2.13;0.85;;;;;;;;;;5027534;28;20561;-60
2022/07/08 16:44:00;;;;;;;2.15;0.90;;;;;;;;;;5020556;28;20033;-59
2022/07/08 16:46:32;;;;;;;1.98;0.98;;;;;;;;;;5027416;28;20036;-59
2022/07/08 16:49:01;;;;;;;1.17;0.68;;;;;;;;;;5029284;28;20105;-59
2022/07/08 16:51:28;;;;;;;3.38;1.15;;;;;;;;;;5028095;28;20040;-59
2022/07/08 16:53:56;;;;;;;3.47;2.38;;;;;;;;;;5029625;28;20017;-60
2022/07/08 16:59:25;;;;;;;3.50;1.35;;;;;;;;;;5017852;28;20061;-60
2022/07/08 17:02:06;;;;;;;1.25;0.60;;;;;;;;;;5027409;28;20355;-59
2022/07/08 17:04:45;;;;;;;2.92;1.55;;;;;;;;;;5025482;28;20048;-60
2022/07/08 17:07:18;;;;;;;3.33;0.82;;;;;;;;;;5033012;28;20421;-59
2022/07/08 17:09:56;;;;;;;2.20;0.90;;;;;;;;;;5027380;28;20025;-60
2022/07/08 17:12:22;;;;;;;3.45;1.02;;;;;;;;;;5024967;28;20093;-60
2022/07/08 17:15:05;;;;;;;3.95;1.30;;;;;;;;;;5036862;28;20057;-59
2022/07/08 17:20:42;;;;;;;2.50;0.82;;;;;;;;;;5020677;28;20037;-59
2022/07/08 17:23:22;;;;;;;;;;;;;;;;;;;;;
2022/07/08 17:25:49;;;;;;;;;;;;;;;;;;5029682;28;20021;-59
2022/07/08 17:28:35;;;;;;;3.30;1.30;;;;;;;;;;5035690;28;20358;-60
2022/07/08 17:31:10;;;;;;;2.65;1.50;;;;;;;;;;5030067;28;20041;-60
2022/07/08 17:33:40;;;;;;;2.38;1.20;;;;;;;;;;5036388;28;20030;-60
2022/07/08 17:36:16;;;;;;;5.63;1.00;;;;;;;;;;5035117;28;20056;-59
2022/07/08 17:38:46;;;;;;;2.47;1.42;;;;;;;;;;5032832;28;20403;-60
2022/07/08 17:41:23;;;;;;;2.35;0.90;;;;;;;;;;5033808;28;20036;-60
2022/07/08 17:44:10;;;;;;;2.53;1.20;;;;;;;;;;5030444;28;20025;-59
2022/07/08 17:46:51;;;;;;;5.53;1.33;;;;;;;;;;5034490;28;20033;-59
2022/07/08 17:49:28;;;;;;;2.45;1.58;;;;;;;;;;5028729;28;20034;-60
2022/07/08 17:52:04;;;;;;;3.35;1.10;;;;;;;;;;5031098;28;20028;-60
2022/07/08 17:54:33;;;;;;;2.92;1.05;;;;;;;;;;5031328;28;20444;-60
2022/07/08 17:57:03;;;;;;;2.15;1.00;;;;;;;;;;5034539;28;20025;-60
2022/07/08 17:59:32;;;;;;;2.40;1.25;;;;;;;;;;5034758;28;20369;-60
2022/07/08 18:02:09;;;;;;;1.83;0.98;;;;;;;;;;5034594;28;20030;-60
2022/07/08 18:04:39;;;;;;;3.45;1.77;;;;;;;;;;5036769;28;20022;-60
2022/07/08 18:07:09;;;;;;;1.73;0.73;;;;;;;;;;5030801;28;20049;-60
2022/07/08 18:09:43;;;;;;;3.67;0.88;;;;;;;;;;5051646;28;20506;-59
2022/07/08 18:12:13;;;;;;;2.40;0.65;;;;;;;;;;5037117;28;20502;-59
2022/07/08 18:15:06;;;;;;;2.20;0.98;;;;;;;;;;5041127;28;20487;-59
2022/07/08 18:20:49;;;;;;;;;;;;;;;;;;;;;
2022/07/08 18:23:27;;;;;;;2.47;1.02;;;;;;;;;;5033022;28;20036;-59
2022/07/08 18:26:02;;;;;;;8.70;2.28;;;;;;;;;;5033909;28;20533;-59
2022/07/08 18:28:29;;;;;;;3.58;1.33;;;;;;;;;;5032739;28;20039;-60
2022/07/08 18:31:00;;;;;;;2.35;1.33;;;;;;;;;;5032129;28;20024;-59
2022/07/08 18:33:51;;;;;;;1.58;0.80;;;;;;;;;;5033183;28;20022;-59
2022/07/08 18:36:23;;;;;;;2.35;1.10;;;;;;;;;;5034599;28;20037;-60
2022/07/08 18:38:52;;;;;;;4.82;1.60;;;;;;;;;;5028554;28;20032;-59
2022/07/08 18:41:32;;;;;;;3.63;1.38;;;;;;;;;;5033258;28;20036;-59
2022/07/08 18:44:15;;;;;;;3.22;0.80;;;;;;;;;;5029319;28;20041;-59
2022/07/08 18:46:46;;;;;;;3.60;1.15;;;;;;;;;;5030929;28;20040;-59
2022/07/08 18:49:21;;;;;;;1.88;0.75;;;;;;;;;;5033100;28;20076;-59
2022/07/08 18:52:04;;;;;;;4.80;1.58;;;;;;;;;;5033100;28;20030;-60
2022/07/08 18:54:42;;;;;;;5.65;1.48;;;;;;;;;;5032653;28;20034;-59
2022/07/08 18:57:14;;;;;;;2.75;0.98;;;;;;;;;;5032873;28;20033;-59
2022/07/08 18:59:45;;;;;;;2.75;1.33;;;;;;;;;;5032291;28;20040;-59